createdAt,value
2023-11-08T00:00:28.451Z,100327.59
2023-11-08T00:02:56.237Z,100307.66
2023-11-08T00:05:23.470Z,100326.66
2023-11-08T00:07:50.362Z,100314.47
2023-11-08T00:10:19.540Z,100331.66
2023-11-08T00:12:46.960Z,100315.88
2023-11-08T00:15:13.959Z,100340.94
2023-11-08T00:17:41.395Z,100341.44
2023-11-08T00:20:11.497Z,100317.44
2023-11-08T00:22:43.007Z,100320.31
2023-11-08T00:25:09.956Z,100300.06
2023-11-08T00:27:36.953Z,100349.31
2023-11-08T00:30:04.840Z,100349.66
2023-11-08T00:32:32.116Z,100311.09
2023-11-08T00:34:59.801Z,100316.44
2023-11-08T00:37:30.036Z,100318.94
2023-11-08T00:39:57.023Z,100320.97
2023-11-08T00:42:23.792Z,100357.50
2023-11-08T00:44:50.693Z,100324.88
2023-11-08T00:47:17.668Z,100338.41
2023-11-08T00:49:45.721Z,100366.63
2023-11-08T00:52:13.912Z,100334.22
2023-11-08T00:54:41.556Z,100328.56
2023-11-08T00:57:11.048Z,100305.44
2023-11-08T00:59:38.024Z,100322.28
2023-11-08T01:02:05.040Z,100366.53
2023-11-08T01:04:32.063Z,100325.38
2023-11-08T01:07:02.426Z,100370.72
2023-11-08T01:09:30.665Z,100339.28
2023-11-08T01:11:57.542Z,100323.25
2023-11-08T01:14:24.807Z,100329.06
2023-11-08T01:16:51.699Z,100359.19
2023-11-08T01:19:20.046Z,100374.75
2023-11-08T01:21:47.707Z,100350.41
2023-11-08T01:24:15.423Z,100344.47
2023-11-08T01:26:43.770Z,100344.84
2023-11-08T01:29:10.750Z,100343.19
2023-11-08T01:31:38.015Z,100391.81
2023-11-08T01:34:05.015Z,100351.03
2023-11-08T01:36:31.989Z,100368.09
2023-11-08T01:39:00.000Z,100374.16
2023-11-08T01:41:30.531Z,100362.66
2023-11-08T01:43:59.930Z,100378.31
2023-11-08T01:46:27.899Z,100337.72
2023-11-08T01:48:56.404Z,100377.13
2023-11-08T01:51:26.516Z,100358.38
2023-11-08T01:53:58.981Z,100363.84
2023-11-08T01:56:26.669Z,100380.47
2023-11-08T01:58:57.787Z,100342.16
2023-11-08T02:01:25.046Z,100370.72
2023-11-08T02:03:57.857Z,100349.28
2023-11-08T02:06:26.557Z,100355.78
2023-11-08T02:08:53.600Z,100348.53
2023-11-08T02:11:20.494Z,100380.31
2023-11-08T02:13:47.445Z,100346.63
2023-11-08T02:16:17.844Z,100391.72
2023-11-08T02:18:44.813Z,100390.88
2023-11-08T02:21:12.058Z,100392.56
2023-11-08T02:23:39.164Z,100392.56
2023-11-08T02:26:06.212Z,100350.19
2023-11-08T02:28:33.282Z,100352.81
2023-11-08T02:31:00.401Z,100368.00
2023-11-08T02:33:29.000Z,100349.97
2023-11-08T02:35:58.717Z,100340.13
2023-11-08T02:38:25.691Z,100356.72
2023-11-08T02:40:52.429Z,100379.53
2023-11-08T02:43:19.294Z,100352.94
2023-11-08T02:45:46.395Z,100331.34
2023-11-08T02:48:13.366Z,100357.66
2023-11-08T02:50:41.003Z,100361.59
2023-11-08T02:53:08.513Z,100348.31
2023-11-08T02:55:37.376Z,100373.56
2023-11-08T02:58:08.611Z,100381.84
2023-11-08T03:00:38.025Z,100362.75
2023-11-08T03:03:08.265Z,100363.22
2023-11-08T03:05:35.596Z,100376.53
2023-11-08T03:08:02.722Z,100376.97
2023-11-08T03:10:29.674Z,100352.41
2023-11-08T03:12:56.894Z,100403.94
2023-11-08T03:15:23.774Z,100406.41
2023-11-08T03:17:53.044Z,100396.22
2023-11-08T03:20:20.859Z,100385.63
2023-11-08T03:22:48.454Z,100365.72
2023-11-08T03:25:19.105Z,100389.78
2023-11-08T03:27:48.328Z,100380.78
2023-11-08T03:30:18.136Z,100403.94
2023-11-08T03:32:45.869Z,100365.84
2023-11-08T03:35:16.884Z,100389.78
2023-11-08T03:37:48.552Z,100394.53
2023-11-08T03:40:17.212Z,100392.75
2023-11-08T03:42:46.062Z,100383.25
2023-11-08T03:45:13.332Z,100387.78
2023-11-08T03:47:44.038Z,100395.97
2023-11-08T03:50:11.086Z,100400.19
2023-11-08T03:52:37.944Z,100432.63
2023-11-08T03:55:07.765Z,100425.56
2023-11-08T03:57:35.560Z,100398.16
2023-11-08T04:00:06.293Z,100394.63
2023-11-08T04:02:35.746Z,100399.59
2023-11-08T04:05:02.673Z,100403.59
2023-11-08T04:07:30.392Z,100410.47
2023-11-08T04:09:57.263Z,100415.97
2023-11-08T04:12:26.893Z,100399.22
2023-11-08T04:14:53.766Z,100379.19
2023-11-08T04:17:24.293Z,100409.09
2023-11-08T04:19:51.154Z,100405.78
2023-11-08T04:22:19.335Z,100395.81
2023-11-08T04:24:46.417Z,100385.84
2023-11-08T04:27:13.225Z,100430.25
2023-11-08T04:29:40.401Z,100396.72
2023-11-08T04:32:07.685Z,100405.88
2023-11-08T04:34:35.370Z,100408.84
2023-11-08T04:37:06.736Z,100422.47
2023-11-08T04:39:33.703Z,100409.22
2023-11-08T04:42:00.511Z,100449.09
2023-11-08T04:44:27.390Z,100423.34
2023-11-08T04:46:54.523Z,100422.84
2023-11-08T04:49:21.537Z,100417.88
2023-11-08T04:51:48.541Z,100398.44
2023-11-08T04:54:15.481Z,100422.19
2023-11-08T04:56:42.977Z,100381.59
2023-11-08T04:59:12.814Z,100400.47
2023-11-08T05:01:40.464Z,100436.28
2023-11-08T05:04:07.419Z,100397.38
2023-11-08T05:06:34.298Z,100426.44
2023-11-08T05:09:01.342Z,100395.34
2023-11-08T05:11:31.259Z,100383.72
2023-11-08T05:13:58.581Z,100399.13
2023-11-08T05:16:25.649Z,100405.41
2023-11-08T05:18:53.059Z,100431.03
2023-11-08T05:21:22.788Z,100406.56
2023-11-08T05:23:49.719Z,100395.25
2023-11-08T05:26:22.962Z,100431.00
2023-11-08T05:28:49.900Z,100385.75
2023-11-08T05:31:16.697Z,100435.72
2023-11-08T05:33:44.509Z,100397.09
2023-11-08T05:36:13.175Z,100412.50
2023-11-08T05:38:44.643Z,100417.97
2023-11-08T05:41:11.859Z,100426.75
2023-11-08T05:43:48.232Z,100404.44
2023-11-08T05:46:15.176Z,100417.53
2023-11-08T05:48:45.372Z,100442.47
2023-11-08T05:51:15.068Z,100441.25
2023-11-08T05:53:42.650Z,100414.78
2023-11-08T05:56:09.589Z,100408.00
2023-11-08T05:58:39.335Z,100445.31
2023-11-08T06:01:07.784Z,100415.84
2023-11-08T06:03:34.753Z,100410.28
2023-11-08T06:06:01.709Z,100406.31
2023-11-08T06:08:28.531Z,100454.56
2023-11-08T06:10:55.424Z,100415.91
2023-11-08T06:13:23.537Z,100414.03
2023-11-08T06:15:51.161Z,100444.66
2023-11-08T06:18:20.234Z,100445.81
2023-11-08T06:20:47.247Z,100401.97
2023-11-08T06:23:14.020Z,100458.97
2023-11-08T06:25:40.885Z,100425.72
2023-11-08T06:28:07.796Z,100432.09
2023-11-08T06:30:34.796Z,100413.19
2023-11-08T06:33:02.368Z,100457.63
2023-11-08T06:35:29.418Z,100412.09
2023-11-08T06:37:57.682Z,100469.13
2023-11-08T06:40:25.952Z,100431.59
2023-11-08T06:42:52.853Z,100423.75
2023-11-08T06:45:20.074Z,100429.94
2023-11-08T06:47:47.018Z,100434.56
2023-11-08T06:50:13.759Z,100471.50
2023-11-08T06:52:40.854Z,100460.47
2023-11-08T06:55:15.555Z,100465.69
2023-11-08T06:57:49.402Z,100478.19
2023-11-08T07:00:16.942Z,100476.03
2023-11-08T07:02:43.942Z,100476.50
2023-11-08T07:05:15.193Z,100486.50
2023-11-08T07:07:43.673Z,100496.94
2023-11-08T07:10:12.767Z,100486.06
2023-11-08T07:12:40.508Z,100488.91
2023-11-08T07:15:09.192Z,100482.84
2023-11-08T07:17:36.517Z,100490.56
2023-11-08T07:20:03.449Z,100500.06
2023-11-08T07:22:33.324Z,100501.75
2023-11-08T07:25:00.202Z,100506.75
2023-11-08T07:27:27.487Z,100510.91
2023-11-08T07:29:54.953Z,100498.41
2023-11-08T07:32:21.832Z,100516.72
2023-11-08T07:34:50.209Z,100513.03
2023-11-08T07:37:17.036Z,100521.69
2023-11-08T07:39:44.125Z,100505.09
2023-11-08T07:42:10.863Z,100508.94
2023-11-08T07:44:38.986Z,100520.78
2023-11-08T07:47:05.811Z,100525.78
2023-11-08T07:49:32.914Z,100511.09
2023-11-08T07:51:59.730Z,100517.03
2023-11-08T07:54:26.569Z,100513.25
2023-11-08T07:56:53.590Z,100520.88
2023-11-08T07:59:20.454Z,100517.66
2023-11-08T08:01:49.187Z,100509.13
2023-11-08T08:04:16.480Z,100516.16
2023-11-08T08:06:43.329Z,100516.00
2023-11-08T08:09:16.561Z,100528.13
2023-11-08T08:11:47.180Z,100518.16
2023-11-08T08:14:14.896Z,100536.75
2023-11-08T08:16:41.765Z,100519.66
2023-11-08T08:19:08.498Z,100524.66
2023-11-08T08:21:35.478Z,100505.28
2023-11-08T08:24:07.279Z,100520.50
2023-11-08T08:26:36.176Z,100519.66
2023-11-08T08:29:03.234Z,100519.66
2023-11-08T08:31:30.275Z,100516.81
2023-11-08T08:33:58.529Z,100514.69
2023-11-08T08:36:25.489Z,100516.34
2023-11-08T08:38:52.262Z,100530.13
2023-11-08T08:41:19.805Z,100524.19
2023-11-08T08:43:46.613Z,100517.53
2023-11-08T08:46:13.410Z,100521.00
2023-11-08T08:48:40.212Z,100518.28
2023-11-08T08:51:06.928Z,100525.19
2023-11-08T08:53:33.643Z,100524.25
2023-11-08T08:56:00.385Z,100508.34
2023-11-08T08:58:27.854Z,100516.94
2023-11-08T09:00:54.845Z,100518.59
2023-11-08T09:03:22.176Z,100512.22
2023-11-08T09:05:49.083Z,100509.75
2023-11-08T09:08:15.773Z,100520.78
2023-11-08T09:10:42.495Z,100510.44
2023-11-08T09:13:09.364Z,100525.31
2023-11-08T09:15:35.985Z,100532.53
2023-11-08T09:18:03.027Z,100517.69
2023-11-08T09:20:31.236Z,100519.59
2023-11-08T09:22:58.088Z,100526.25
2023-11-08T09:25:24.835Z,100524.69
2023-11-08T09:27:51.880Z,100529.69
2023-11-08T09:30:18.751Z,100518.75
2023-11-08T09:32:47.057Z,100538.09
2023-11-08T09:35:14.137Z,100528.13
2023-11-08T09:37:41.017Z,100546.44
2023-11-08T09:40:11.384Z,100537.75
2023-11-08T09:42:39.710Z,100545.94
2023-11-08T09:45:13.715Z,100549.38
2023-11-08T09:47:41.987Z,100560.41
2023-11-08T09:50:10.733Z,100551.50
2023-11-08T09:52:38.981Z,100554.81
2023-11-08T09:55:07.491Z,100545.91
2023-11-08T09:57:37.510Z,100549.81
2023-11-08T10:00:05.354Z,100540.44
2023-11-08T10:02:34.320Z,100540.81
2023-11-08T10:05:01.409Z,100539.94
2023-11-08T10:07:29.354Z,100539.94
2023-11-08T10:09:56.082Z,100533.66
2023-11-08T10:12:23.175Z,100538.88
2023-11-08T10:15:05.800Z,100539.94
2023-11-08T10:19:30.234Z,100528.06
2023-11-08T10:20:37.475Z,100533.75
2023-11-08T10:23:07.530Z,100532.97
2023-11-08T10:25:35.606Z,100522.03
2023-11-08T10:28:07.735Z,100535.78
2023-11-08T10:30:38.777Z,100524.47
2023-11-08T10:33:10.348Z,100520.66
2023-11-08T10:35:39.281Z,100519.09
2023-11-08T10:38:07.076Z,100508.28
2023-11-08T10:40:34.689Z,100495.06
2023-11-08T10:43:04.258Z,100503.94
2023-11-08T10:45:36.102Z,100483.53
2023-11-08T10:48:05.244Z,100501.56
2023-11-08T10:50:33.478Z,100505.69
2023-11-08T10:53:00.329Z,100489.28
2023-11-08T10:55:27.511Z,100494.38
2023-11-08T10:57:59.635Z,100493.13
2023-11-08T11:00:28.418Z,100485.84
2023-11-08T11:03:02.199Z,100486.16
2023-11-08T11:05:31.629Z,100489.28
2023-11-08T11:08:00.740Z,100475.06
2023-11-08T11:10:29.712Z,100471.25
2023-11-08T11:13:06.308Z,100466.44
2023-11-08T11:15:52.723Z,100465.13
2023-11-08T11:18:25.237Z,100468.09
2023-11-08T11:21:07.193Z,100468.09
2023-11-08T11:23:36.646Z,100476.06
2023-11-08T11:26:05.829Z,100474.72
2023-11-08T11:28:57.593Z,100459.47
2023-11-08T11:31:31.271Z,100470.56
2023-11-08T11:33:58.149Z,100466.28
2023-11-08T11:36:25.684Z,100463.00
2023-11-08T11:39:12.214Z,100461.44
2023-11-08T11:41:39.055Z,100458.78
2023-11-08T11:44:11.673Z,100454.25
2023-11-08T11:46:38.437Z,100449.75
2023-11-08T11:49:11.081Z,100445.03
2023-11-08T11:51:39.765Z,100422.03
2023-11-08T11:54:06.841Z,100438.13
2023-11-08T11:56:34.358Z,100436.06
2023-11-08T11:59:01.316Z,100430.69
2023-11-08T12:01:29.376Z,100424.19
2023-11-08T12:03:58.145Z,100436.78
2023-11-08T12:06:25.590Z,100432.41
2023-11-08T12:08:52.397Z,100430.75
2023-11-08T12:11:21.892Z,100420.22
2023-11-08T12:13:51.543Z,100429.53
2023-11-08T12:16:19.066Z,100433.91
2023-11-08T12:18:48.593Z,100428.91
2023-11-08T12:21:16.646Z,100410.81
2023-11-08T12:23:50.805Z,100426.22
2023-11-08T12:26:23.812Z,100411.38
2023-11-08T12:28:50.602Z,100420.75
2023-11-08T12:31:26.127Z,100413.41
2023-11-08T12:33:53.814Z,100415.66
2023-11-08T12:36:20.991Z,100399.13
2023-11-08T12:38:48.499Z,100413.13
2023-11-08T12:41:16.914Z,100390.22
2023-11-08T12:44:02.556Z,100397.59
2023-11-08T12:46:40.583Z,100399.16
2023-11-08T12:49:16.885Z,100410.41
2023-11-08T12:51:45.485Z,100402.94
2023-11-08T12:54:15.843Z,100399.66
2023-11-08T12:56:44.323Z,100400.09
2023-11-08T12:59:12.871Z,100397.31
2023-11-08T13:01:40.549Z,100389.59
2023-11-08T13:04:08.658Z,100391.25
2023-11-08T13:06:35.662Z,100383.53
2023-11-08T13:09:05.557Z,100384.69
2023-11-08T13:11:33.238Z,100379.72
2023-11-08T13:14:00.268Z,100381.63
2023-11-08T13:16:27.184Z,100394.81
2023-11-08T13:18:55.207Z,100380.28
2023-11-08T13:21:23.251Z,100372.56
2023-11-08T13:24:02.541Z,100375.31
2023-11-08T13:26:34.767Z,100376.97
2023-11-08T13:29:01.930Z,100371.50
2023-11-08T13:31:28.928Z,100372.00
2023-11-08T13:33:56.461Z,100368.16
2023-11-08T13:36:28.429Z,100377.50
2023-11-08T13:38:56.322Z,100364.88
2023-11-08T13:41:23.675Z,100362.91
2023-11-08T13:43:50.530Z,100371.38
2023-11-08T13:46:27.813Z,100358.13
2023-11-08T13:48:54.960Z,100357.28
2023-11-08T13:51:22.226Z,100359.75
2023-11-08T13:53:49.120Z,100362.47
2023-11-08T13:56:16.093Z,100343.75
2023-11-08T13:58:43.107Z,100345.09
2023-11-08T14:01:18.527Z,100346.44
2023-11-08T14:03:46.325Z,100346.91
2023-11-08T14:06:14.201Z,100351.31
2023-11-08T14:08:41.937Z,100333.34
2023-11-08T14:11:09.594Z,100330.94
2023-11-08T14:13:36.573Z,100330.38
2023-11-08T14:16:04.085Z,100326.47
2023-11-08T14:18:31.143Z,100321.25
2023-11-08T14:20:58.822Z,100310.47
2023-11-08T14:23:26.643Z,100311.81
2023-11-08T14:25:54.785Z,100301.72
2023-11-08T14:28:23.084Z,100307.19
2023-11-08T14:30:51.812Z,100305.47
2023-11-08T14:33:18.684Z,100292.28
2023-11-08T14:35:45.751Z,100285.69
2023-11-08T14:38:13.964Z,100295.53
2023-11-08T14:40:42.120Z,100293.31
2023-11-08T14:43:09.373Z,100293.75
2023-11-08T14:45:36.277Z,100294.03
2023-11-08T14:48:03.914Z,100290.97
2023-11-08T14:50:30.770Z,100286.56
2023-11-08T14:52:57.657Z,100288.97
2023-11-08T14:55:24.466Z,100283.72
2023-11-08T14:57:52.685Z,100276.56
2023-11-08T15:00:22.387Z,100268.31
2023-11-08T15:02:49.516Z,100274.25
2023-11-08T15:05:16.292Z,100263.31
2023-11-08T15:09:43.229Z,100269.56
2023-11-08T15:10:30.011Z,100266.00
2023-11-08T15:12:57.487Z,100258.53
2023-11-08T15:15:25.005Z,100257.72
2023-11-08T15:17:53.157Z,100247.28
2023-11-08T15:20:22.670Z,100245.63
2023-11-08T15:23:00.361Z,100234.59
2023-11-08T15:25:27.300Z,100228.50
2023-11-08T15:27:54.310Z,100213.16
2023-11-08T15:30:21.377Z,100216.22
2023-11-08T15:32:49.534Z,100219.78
2023-11-08T15:35:16.942Z,100216.47
2023-11-08T15:37:43.763Z,100202.75
2023-11-08T15:40:12.236Z,100209.03
2023-11-08T15:42:39.286Z,100182.56
2023-11-08T15:45:08.423Z,100206.22
2023-11-08T15:47:35.690Z,100205.41
2023-11-08T15:50:03.761Z,100193.81
2023-11-08T15:52:30.558Z,100188.94
2023-11-08T15:54:57.256Z,100180.75
2023-11-08T15:57:28.520Z,100180.41
2023-11-08T16:02:28.591Z,100175.44
2023-11-08T16:04:55.995Z,100176.25
2023-11-08T16:07:24.391Z,100167.97
2023-11-08T16:09:51.362Z,100160.84
2023-11-08T16:12:18.400Z,100159.28
2023-11-08T16:14:46.875Z,100149.09
2023-11-08T16:17:14.350Z,100140.84
2023-11-08T16:19:42.248Z,100152.91
2023-11-08T16:22:10.499Z,100155.38
2023-11-08T16:24:40.800Z,100156.22
2023-11-08T16:27:09.306Z,100158.13
2023-11-08T16:29:51.320Z,100162.50
2023-11-08T16:32:35.576Z,100156.50
2023-11-08T16:35:08.788Z,100163.53
2023-11-08T16:37:40.141Z,100147.66
2023-11-08T16:42:50.568Z,100136.88
2023-11-08T16:45:17.476Z,100135.47
2023-11-08T16:47:44.258Z,100128.34
2023-11-08T16:50:11.947Z,100130.50
2023-11-08T16:52:38.998Z,100134.34
2023-11-08T16:55:09.124Z,100128.75
2023-11-08T16:57:37.925Z,100136.97
2023-11-08T17:00:06.767Z,100123.81
2023-11-08T17:02:33.570Z,100121.91
2023-11-08T17:05:01.071Z,100115.03
2023-11-08T17:07:29.207Z,100096.91
2023-11-08T17:10:00.207Z,100111.16
2023-11-08T17:12:27.075Z,100100.41
2023-11-08T17:14:55.132Z,100098.00
2023-11-08T17:17:21.931Z,100100.66
2023-11-08T17:19:49.591Z,100091.53
2023-11-08T17:22:17.974Z,100107.94
2023-11-08T17:24:45.075Z,100097.53
2023-11-08T17:27:13.918Z,100093.94
2023-11-08T17:29:43.454Z,100075.28
2023-11-08T17:32:10.261Z,100073.63
2023-11-08T17:34:37.665Z,100081.28
2023-11-08T17:37:07.346Z,100065.91
2023-11-08T17:39:35.176Z,100072.53
2023-11-08T17:42:01.968Z,100074.69
2023-11-08T17:44:29.995Z,100058.78
2023-11-08T17:46:57.193Z,100051.03
2023-11-08T17:49:24.488Z,100052.19
2023-11-08T17:52:00.560Z,100047.81
2023-11-08T17:54:27.427Z,100050.53
2023-11-08T17:56:54.139Z,100041.75
2023-11-08T17:59:21.154Z,100047.22
2023-11-08T18:01:48.661Z,100045.59
2023-11-08T18:04:16.860Z,100038.47
2023-11-08T18:06:44.226Z,100038.38
2023-11-08T18:09:13.955Z,100032.34
2023-11-08T18:11:41.412Z,100034.00
2023-11-08T18:14:08.231Z,100031.28
2023-11-08T18:16:37.069Z,100013.16
2023-11-08T18:19:05.848Z,100012.91
2023-11-08T18:21:32.617Z,100018.69
2023-11-08T18:23:59.377Z,100021.44
2023-11-08T18:26:26.592Z,100014.91
2023-11-08T18:28:55.293Z,100003.88
2023-11-08T18:31:23.392Z,100010.78
2023-11-08T18:33:50.393Z,100008.53
2023-11-08T18:36:19.664Z,99999.53
2023-11-08T18:38:46.549Z,99988.03
2023-11-08T18:41:13.214Z,99996.28
2023-11-08T18:43:40.993Z,100002.81
2023-11-08T18:46:07.805Z,99998.41
2023-11-08T18:48:35.473Z,99996.78
2023-11-08T18:51:08.842Z,99997.03
2023-11-08T18:53:40.744Z,99996.53
2023-11-08T18:56:11.067Z,99996.28
2023-11-08T18:58:41.556Z,99990.81
2023-11-08T19:01:11.972Z,99995.47
2023-11-08T19:03:39.148Z,99996.28
2023-11-08T19:06:06.551Z,99994.63
2023-11-08T19:08:34.071Z,99996.28
2023-11-08T19:11:02.836Z,99994.13
2023-11-08T19:13:30.366Z,99991.41
2023-11-08T19:16:00.268Z,99985.69
2023-11-08T19:18:27.125Z,99978.91
2023-11-08T19:20:54.184Z,99974.84
2023-11-08T19:23:27.425Z,99963.38
2023-11-08T19:25:58.084Z,99961.19
2023-11-08T19:28:25.533Z,99956.59
2023-11-08T19:30:52.421Z,99964.50
2023-11-08T19:33:22.299Z,99963.69
2023-11-08T19:35:50.788Z,99961.53
2023-11-08T19:38:17.584Z,99952.25
2023-11-08T19:40:44.378Z,99946.81
2023-11-08T19:43:11.816Z,99944.34
2023-11-08T19:45:38.577Z,99932.56
2023-11-08T19:48:05.634Z,99930.94
2023-11-08T19:50:32.697Z,99935.88
2023-11-08T19:52:59.690Z,99937.53
2023-11-08T19:55:28.812Z,99926.63
2023-11-08T19:57:58.208Z,99930.16
2023-11-08T20:00:25.436Z,99919.00
2023-11-08T20:02:53.859Z,99915.22
2023-11-08T20:05:20.865Z,99908.91
2023-11-08T20:07:49.958Z,99906.69
2023-11-08T20:10:18.971Z,99918.50
2023-11-08T20:12:50.768Z,99909.22
2023-11-08T20:15:17.604Z,99885.09
2023-11-08T20:17:46.954Z,99904.09
2023-11-08T20:20:15.148Z,99890.19
2023-11-08T20:22:42.267Z,99894.81
2023-11-08T20:25:10.614Z,99897.28
2023-11-08T20:27:39.508Z,99892.69
2023-11-08T20:30:08.427Z,99893.50
2023-11-08T20:32:37.208Z,99893.50
2023-11-08T20:35:10.356Z,99894.81
2023-11-08T20:37:37.820Z,99900.28
2023-11-08T20:40:10.184Z,99897.50
2023-11-08T20:42:37.293Z,99887.59
2023-11-08T20:45:07.348Z,99896.66
2023-11-08T20:47:34.333Z,99886.25
2023-11-08T20:50:03.654Z,99892.53
2023-11-08T20:52:32.872Z,99904.78
2023-11-08T20:55:01.615Z,99906.13
2023-11-08T20:57:33.448Z,99887.28
2023-11-08T21:00:01.492Z,99886.44
2023-11-08T21:02:28.446Z,99886.44
2023-11-08T21:04:55.116Z,99880.66
2023-11-08T21:07:22.175Z,99874.06
2023-11-08T21:09:51.980Z,99865.28
2023-11-08T21:12:19.999Z,99867.53
2023-11-08T21:14:47.062Z,99861.47
2023-11-08T21:17:13.905Z,99865.59
2023-11-08T21:19:41.824Z,99842.31
2023-11-08T21:22:10.065Z,99862.28
2023-11-08T21:24:38.270Z,99857.09
2023-11-08T21:27:05.223Z,99858.16
2023-11-08T21:29:32.183Z,99861.97
2023-11-08T21:32:02.876Z,99858.69
2023-11-08T21:34:29.875Z,99857.03
2023-11-08T21:36:56.816Z,99858.69
2023-11-08T21:39:23.860Z,99843.88
2023-11-08T21:41:51.372Z,99850.44
2023-11-08T21:44:19.122Z,99846.63
2023-11-08T21:46:47.142Z,99836.22
2023-11-08T21:49:14.150Z,99843.88
2023-11-08T21:51:42.438Z,99827.97
2023-11-08T21:54:10.215Z,99832.91
2023-11-08T21:56:37.221Z,99832.91
2023-11-08T21:59:04.229Z,99831.50
2023-11-08T22:01:31.150Z,99835.56
2023-11-08T22:03:57.903Z,99824.66
2023-11-08T22:06:27.530Z,99816.75
2023-11-08T22:08:56.329Z,99810.44
2023-11-08T22:11:25.205Z,99814.25
2023-11-08T22:13:54.632Z,99807.13
2023-11-08T22:16:21.899Z,99796.22
2023-11-08T22:18:48.981Z,99794.56
2023-11-08T22:21:15.948Z,99791.84
2023-11-08T22:23:43.250Z,99781.16
2023-11-08T22:26:20.895Z,99771.09
2023-11-08T22:28:48.308Z,99767.50
2023-11-08T22:31:15.359Z,99764.25
2023-11-08T22:33:42.199Z,99766.13
2023-11-08T22:36:13.415Z,99757.72
2023-11-08T22:38:40.422Z,99750.59
2023-11-08T22:41:07.855Z,99767.28
2023-11-08T22:43:34.885Z,99759.00
2023-11-08T22:46:01.769Z,99742.66
2023-11-08T22:48:29.139Z,99755.53
2023-11-08T22:50:59.484Z,99748.09
2023-11-08T22:53:26.468Z,99739.69
2023-11-08T22:55:53.110Z,99741.34
2023-11-08T22:58:20.396Z,99736.69
2023-11-08T23:00:47.625Z,99736.69
2023-11-08T23:03:15.953Z,99736.69
2023-11-08T23:05:44.985Z,99729.59
2023-11-08T23:08:11.823Z,99732.31
2023-11-08T23:10:39.089Z,99728.78
2023-11-08T23:13:05.878Z,99727.13
2023-11-08T23:15:32.703Z,99724.72
2023-11-08T23:18:00.530Z,99706.13
2023-11-08T23:20:27.624Z,99704.53
2023-11-08T23:22:58.670Z,99690.06
2023-11-08T23:25:25.789Z,99665.28
2023-11-08T23:27:54.171Z,99675.69
2023-11-08T23:30:21.128Z,99671.88
2023-11-08T23:32:47.898Z,99676.28
2023-11-08T23:35:16.241Z,99667.00
2023-11-08T23:37:45.514Z,99646.81
2023-11-08T23:40:12.806Z,99649.03
2023-11-08T23:42:39.607Z,99640.84
2023-11-08T23:45:07.049Z,99646.88
2023-11-08T23:47:34.075Z,99637.63
2023-11-08T23:50:01.129Z,99641.72
2023-11-08T23:52:27.937Z,99644.19
2023-11-08T23:54:54.727Z,99627.25
2023-11-08T23:57:21.694Z,99622.06
2023-11-08T23:59:48.462Z,99620.22
